Terminal Aerodrome Forecast
Issued by NWS

Home | Current Version | Previous Version | Text Only | Print | Product List | Glossary On
Versions: 1 2 3 4 5 6 7 8 9 10 11 12 13 14 15 16 17 18
372
FTUS45 KVEF 302323
TAFEED
TAF
KEED 302323Z 3100/3124 19012G20KT P6SM BKN150 BKN220
     FM310300 23010KT P6SM BKN150 BKN250
     FM311500 23010KT P6SM SCT150 BKN220
     FM311900 20012G20KT P6SM FEW120 SCT150=

USA.gov is the U.S. government's official web portal to all federal, state and local government web resources and services.